sensor_id;sensor_type;location;lat;lon;timestamp;P1;durP1;ratioP1;P2;durP2;ratioP2
7029;SDS011;3556;53.500;10.176;2023-07-09T00:01:51;4.90;;;3.00;;
7029;SDS011;3556;53.500;10.176;2023-07-09T00:04:17;3.33;;;3.00;;
7029;SDS011;3556;53.500;10.176;2023-07-09T00:06:43;3.37;;;3.07;;
7029;SDS011;3556;53.500;10.176;2023-07-09T00:09:20;4.60;;;3.13;;
7029;SDS011;3556;53.500;10.176;2023-07-09T00:11:47;6.10;;;2.97;;
7029;SDS011;3556;53.500;10.176;2023-07-09T00:14:13;3.27;;;2.97;;
7029;SDS011;3556;53.500;10.176;2023-07-09T00:16:41;3.20;;;2.90;;
7029;SDS011;3556;53.500;10.176;2023-07-09T00:19:11;3.60;;;3.37;;
7029;SDS011;3556;53.500;10.176;2023-07-09T00:21:41;3.33;;;3.13;;
7029;SDS011;3556;53.500;10.176;2023-07-09T00:24:10;7.80;;;3.40;;
7029;SDS011;3556;53.500;10.176;2023-07-09T00:26:36;2.97;;;2.77;;
7029;SDS011;3556;53.500;10.176;2023-07-09T00:29:03;5.50;;;3.07;;
7029;SDS011;3556;53.500;10.176;2023-07-09T00:31:29;6.53;;;3.50;;
7029;SDS011;3556;53.500;10.176;2023-07-09T00:33:55;3.33;;;3.10;;
7029;SDS011;3556;53.500;10.176;2023-07-09T00:36:28;3.60;;;3.40;;
7029;SDS011;3556;53.500;10.176;2023-07-09T00:38:56;3.50;;;3.03;;
7029;SDS011;3556;53.500;10.176;2023-07-09T00:41:24;3.53;;;3.23;;
7029;SDS011;3556;53.500;10.176;2023-07-09T00:43:50;3.53;;;3.20;;
7029;SDS011;3556;53.500;10.176;2023-07-09T00:48:48;3.33;;;3.00;;
7029;SDS011;3556;53.500;10.176;2023-07-09T00:51:26;2.93;;;2.70;;
7029;SDS011;3556;53.500;10.176;2023-07-09T00:53:54;4.00;;;3.40;;
7029;SDS011;3556;53.500;10.176;2023-07-09T00:56:27;3.30;;;3.00;;
7029;SDS011;3556;53.500;10.176;2023-07-09T00:58:59;4.73;;;3.07;;
7029;SDS011;3556;53.500;10.176;2023-07-09T01:01:29;2.87;;;2.67;;
7029;SDS011;3556;53.500;10.176;2023-07-09T01:03:57;3.17;;;2.87;;
7029;SDS011;3556;53.500;10.176;2023-07-09T01:06:35;3.30;;;3.10;;
7029;SDS011;3556;53.500;10.176;2023-07-09T01:09:04;3.30;;;3.10;;
7029;SDS011;3556;53.500;10.176;2023-07-09T01:11:31;3.70;;;3.23;;
7029;SDS011;3556;53.500;10.176;2023-07-09T01:13:57;7.27;;;2.63;;
7029;SDS011;3556;53.500;10.176;2023-07-09T01:16:36;3.53;;;3.23;;
7029;SDS011;3556;53.500;10.176;2023-07-09T01:19:07;3.80;;;2.93;;
7029;SDS011;3556;53.500;10.176;2023-07-09T01:21:32;5.77;;;3.03;;
7029;SDS011;3556;53.500;10.176;2023-07-09T01:23:58;2.83;;;2.63;;
7029;SDS011;3556;53.500;10.176;2023-07-09T01:26:36;4.20;;;3.10;;
7029;SDS011;3556;53.500;10.176;2023-07-09T01:29:03;3.73;;;3.13;;
7029;SDS011;3556;53.500;10.176;2023-07-09T01:31:29;4.60;;;3.30;;
7029;SDS011;3556;53.500;10.176;2023-07-09T01:33:55;4.30;;;3.20;;
7029;SDS011;3556;53.500;10.176;2023-07-09T01:36:21;5.53;;;3.40;;
7029;SDS011;3556;53.500;10.176;2023-07-09T01:38:48;6.67;;;2.97;;
7029;SDS011;3556;53.500;10.176;2023-07-09T01:41:16;3.20;;;2.90;;
7029;SDS011;3556;53.500;10.176;2023-07-09T01:43:42;6.27;;;3.07;;
7029;SDS011;3556;53.500;10.176;2023-07-09T01:46:09;3.73;;;3.43;;
7029;SDS011;3556;53.500;10.176;2023-07-09T01:48:37;5.40;;;3.23;;
7029;SDS011;3556;53.500;10.176;2023-07-09T01:51:06;3.93;;;3.40;;
7029;SDS011;3556;53.500;10.176;2023-07-09T01:53:37;3.80;;;3.33;;
7029;SDS011;3556;53.500;10.176;2023-07-09T01:56:04;3.47;;;3.17;;
7029;SDS011;3556;53.500;10.176;2023-07-09T01:58:32;3.70;;;3.30;;
7029;SDS011;3556;53.500;10.176;2023-07-09T02:00:58;3.33;;;3.03;;
7029;SDS011;3556;53.500;10.176;2023-07-09T02:03:24;3.33;;;3.07;;
7029;SDS011;3556;53.500;10.176;2023-07-09T02:05:53;4.90;;;3.50;;
7029;SDS011;3556;53.500;10.176;2023-07-09T02:08:19;3.60;;;3.30;;
7029;SDS011;3556;53.500;10.176;2023-07-09T02:10:47;8.10;;;3.53;;
7029;SDS011;3556;53.500;10.176;2023-07-09T02:13:14;4.27;;;3.47;;
7029;SDS011;3556;53.500;10.176;2023-07-09T02:15:40;5.33;;;3.47;;
7029;SDS011;3556;53.500;10.176;2023-07-09T02:18:08;3.70;;;3.40;;
7029;SDS011;3556;53.500;10.176;2023-07-09T02:20:45;3.27;;;3.07;;
7029;SDS011;3556;53.500;10.176;2023-07-09T02:23:11;3.20;;;2.97;;
7029;SDS011;3556;53.500;10.176;2023-07-09T02:25:36;3.57;;;3.30;;
7029;SDS011;3556;53.500;10.176;2023-07-09T02:28:02;5.67;;;3.20;;
7029;SDS011;3556;53.500;10.176;2023-07-09T02:30:28;5.43;;;3.03;;
7029;SDS011;3556;53.500;10.176;2023-07-09T02:32:53;5.57;;;3.03;;
7029;SDS011;3556;53.500;10.176;2023-07-09T02:35:19;4.43;;;3.37;;
7029;SDS011;3556;53.500;10.176;2023-07-09T02:37:45;3.80;;;3.50;;
7029;SDS011;3556;53.500;10.176;2023-07-09T02:40:11;3.63;;;3.37;;
7029;SDS011;3556;53.500;10.176;2023-07-09T02:42:38;3.80;;;3.50;;
7029;SDS011;3556;53.500;10.176;2023-07-09T02:45:04;4.13;;;3.37;;
7029;SDS011;3556;53.500;10.176;2023-07-09T02:47:30;4.13;;;3.73;;
7029;SDS011;3556;53.500;10.176;2023-07-09T02:49:55;3.53;;;3.23;;
7029;SDS011;3556;53.500;10.176;2023-07-09T02:52:21;5.33;;;3.80;;
7029;SDS011;3556;53.500;10.176;2023-07-09T02:54:47;3.40;;;2.90;;
7029;SDS011;3556;53.500;10.176;2023-07-09T02:57:12;3.60;;;3.40;;
7029;SDS011;3556;53.500;10.176;2023-07-09T02:59:38;5.07;;;2.77;;
7029;SDS011;3556;53.500;10.176;2023-07-09T03:02:04;3.93;;;3.20;;
7029;SDS011;3556;53.500;10.176;2023-07-09T03:04:29;3.97;;;3.50;;
7029;SDS011;3556;53.500;10.176;2023-07-09T03:06:56;4.30;;;3.50;;
7029;SDS011;3556;53.500;10.176;2023-07-09T03:09:22;3.30;;;3.10;;
7029;SDS011;3556;53.500;10.176;2023-07-09T03:11:48;3.30;;;3.10;;
7029;SDS011;3556;53.500;10.176;2023-07-09T03:14:14;5.60;;;3.70;;
7029;SDS011;3556;53.500;10.176;2023-07-09T03:16:40;3.53;;;3.23;;
7029;SDS011;3556;53.500;10.176;2023-07-09T03:19:06;4.23;;;3.20;;
7029;SDS011;3556;53.500;10.176;2023-07-09T03:21:32;5.30;;;3.37;;
7029;SDS011;3556;53.500;10.176;2023-07-09T03:23:57;4.07;;;3.67;;
7029;SDS011;3556;53.500;10.176;2023-07-09T03:26:23;7.37;;;3.83;;
7029;SDS011;3556;53.500;10.176;2023-07-09T03:28:50;3.63;;;3.33;;
7029;SDS011;3556;53.500;10.176;2023-07-09T03:31:17;8.93;;;3.20;;
7029;SDS011;3556;53.500;10.176;2023-07-09T03:33:42;4.07;;;3.60;;
7029;SDS011;3556;53.500;10.176;2023-07-09T03:36:08;4.10;;;3.70;;
7029;SDS011;3556;53.500;10.176;2023-07-09T03:38:34;3.63;;;3.30;;
7029;SDS011;3556;53.500;10.176;2023-07-09T03:40:59;3.73;;;3.40;;
7029;SDS011;3556;53.500;10.176;2023-07-09T03:43:25;3.40;;;3.10;;
7029;SDS011;3556;53.500;10.176;2023-07-09T03:45:51;3.97;;;3.63;;
7029;SDS011;3556;53.500;10.176;2023-07-09T03:48:17;4.87;;;3.70;;
7029;SDS011;3556;53.500;10.176;2023-07-09T03:50:44;3.40;;;3.20;;
7029;SDS011;3556;53.500;10.176;2023-07-09T03:53:11;3.90;;;3.47;;
7029;SDS011;3556;53.500;10.176;2023-07-09T03:55:37;4.10;;;3.30;;
7029;SDS011;3556;53.500;10.176;2023-07-09T03:58:03;4.17;;;3.63;;
7029;SDS011;3556;53.500;10.176;2023-07-09T04:00:29;3.57;;;3.27;;
7029;SDS011;3556;53.500;10.176;2023-07-09T04:02:56;5.87;;;3.70;;
7029;SDS011;3556;53.500;10.176;2023-07-09T04:05:22;4.27;;;3.50;;
7029;SDS011;3556;53.500;10.176;2023-07-09T04:07:48;3.67;;;3.37;;
7029;SDS011;3556;53.500;10.176;2023-07-09T04:10:14;3.50;;;3.20;;
7029;SDS011;3556;53.500;10.176;2023-07-09T04:12:40;4.13;;;3.73;;
7029;SDS011;3556;53.500;10.176;2023-07-09T04:15:06;3.97;;;3.57;;
7029;SDS011;3556;53.500;10.176;2023-07-09T04:17:32;3.43;;;3.23;;
7029;SDS011;3556;53.500;10.176;2023-07-09T04:19:58;4.33;;;3.80;;
7029;SDS011;3556;53.500;10.176;2023-07-09T04:22:24;6.33;;;3.40;;
7029;SDS011;3556;53.500;10.176;2023-07-09T04:24:50;3.30;;;3.10;;
7029;SDS011;3556;53.500;10.176;2023-07-09T04:27:17;3.67;;;3.47;;
7029;SDS011;3556;53.500;10.176;2023-07-09T04:29:43;3.20;;;3.00;;
7029;SDS011;3556;53.500;10.176;2023-07-09T04:32:12;3.13;;;2.93;;
7029;SDS011;3556;53.500;10.176;2023-07-09T04:34:39;4.23;;;3.83;;
7029;SDS011;3556;53.500;10.176;2023-07-09T04:37:06;3.50;;;3.20;;
7029;SDS011;3556;53.500;10.176;2023-07-09T04:39:32;3.93;;;3.40;;
7029;SDS011;3556;53.500;10.176;2023-07-09T04:41:58;3.23;;;3.03;;
7029;SDS011;3556;53.500;10.176;2023-07-09T04:44:24;3.60;;;3.30;;
7029;SDS011;3556;53.500;10.176;2023-07-09T04:46:50;3.83;;;3.43;;
7029;SDS011;3556;53.500;10.176;2023-07-09T04:49:15;4.63;;;3.83;;
7029;SDS011;3556;53.500;10.176;2023-07-09T04:51:41;4.17;;;3.40;;
7029;SDS011;3556;53.500;10.176;2023-07-09T04:54:07;3.70;;;3.40;;
7029;SDS011;3556;53.500;10.176;2023-07-09T04:56:32;4.03;;;3.63;;
7029;SDS011;3556;53.500;10.176;2023-07-09T04:58:58;3.77;;;3.47;;
7029;SDS011;3556;53.500;10.176;2023-07-09T05:01:23;5.73;;;3.37;;
7029;SDS011;3556;53.500;10.176;2023-07-09T05:03:49;4.70;;;3.43;;
7029;SDS011;3556;53.500;10.176;2023-07-09T05:06:15;3.70;;;3.30;;
7029;SDS011;3556;53.500;10.176;2023-07-09T05:08:41;5.40;;;3.30;;
7029;SDS011;3556;53.500;10.176;2023-07-09T05:11:08;4.90;;;3.40;;
7029;SDS011;3556;53.500;10.176;2023-07-09T05:13:35;3.80;;;3.30;;
7029;SDS011;3556;53.500;10.176;2023-07-09T05:16:00;6.20;;;3.50;;
7029;SDS011;3556;53.500;10.176;2023-07-09T05:18:26;4.40;;;3.87;;
7029;SDS011;3556;53.500;10.176;2023-07-09T05:20:51;3.60;;;3.40;;
7029;SDS011;3556;53.500;10.176;2023-07-09T05:23:17;6.67;;;3.63;;
7029;SDS011;3556;53.500;10.176;2023-07-09T05:25:43;6.70;;;3.80;;
7029;SDS011;3556;53.500;10.176;2023-07-09T05:28:09;4.00;;;3.40;;
7029;SDS011;3556;53.500;10.176;2023-07-09T05:30:35;7.13;;;3.70;;
7029;SDS011;3556;53.500;10.176;2023-07-09T05:33:00;6.73;;;4.20;;
7029;SDS011;3556;53.500;10.176;2023-07-09T05:35:26;3.30;;;3.10;;
7029;SDS011;3556;53.500;10.176;2023-07-09T05:37:55;6.83;;;3.83;;
7029;SDS011;3556;53.500;10.176;2023-07-09T05:40:21;6.10;;;3.87;;
7029;SDS011;3556;53.500;10.176;2023-07-09T05:42:47;4.90;;;3.70;;
7029;SDS011;3556;53.500;10.176;2023-07-09T05:45:14;5.10;;;3.30;;
7029;SDS011;3556;53.500;10.176;2023-07-09T05:47:40;4.57;;;4.10;;
7029;SDS011;3556;53.500;10.176;2023-07-09T05:50:06;4.93;;;4.10;;
7029;SDS011;3556;53.500;10.176;2023-07-09T05:52:32;4.27;;;3.97;;
7029;SDS011;3556;53.500;10.176;2023-07-09T05:54:58;6.77;;;4.20;;
7029;SDS011;3556;53.500;10.176;2023-07-09T05:57:24;3.57;;;3.30;;
7029;SDS011;3556;53.500;10.176;2023-07-09T05:59:50;10.13;;;3.90;;
7029;SDS011;3556;53.500;10.176;2023-07-09T06:02:17;7.80;;;3.80;;
7029;SDS011;3556;53.500;10.176;2023-07-09T06:04:44;4.80;;;3.43;;
7029;SDS011;3556;53.500;10.176;2023-07-09T06:07:10;5.00;;;3.93;;
7029;SDS011;3556;53.500;10.176;2023-07-09T06:09:37;4.43;;;4.03;;
7029;SDS011;3556;53.500;10.176;2023-07-09T06:12:03;5.27;;;3.83;;
7029;SDS011;3556;53.500;10.176;2023-07-09T06:14:30;5.27;;;3.87;;
7029;SDS011;3556;53.500;10.176;2023-07-09T06:16:57;5.77;;;3.80;;
7029;SDS011;3556;53.500;10.176;2023-07-09T06:19:23;4.17;;;3.77;;
7029;SDS011;3556;53.500;10.176;2023-07-09T06:21:48;4.53;;;3.77;;
7029;SDS011;3556;53.500;10.176;2023-07-09T06:24:14;4.80;;;4.30;;
7029;SDS011;3556;53.500;10.176;2023-07-09T06:26:40;6.70;;;4.30;;
7029;SDS011;3556;53.500;10.176;2023-07-09T06:29:05;4.00;;;3.60;;
7029;SDS011;3556;53.500;10.176;2023-07-09T06:31:31;4.17;;;3.80;;
7029;SDS011;3556;53.500;10.176;2023-07-09T06:33:56;4.57;;;3.83;;
7029;SDS011;3556;53.500;10.176;2023-07-09T06:36:22;4.10;;;3.80;;
7029;SDS011;3556;53.500;10.176;2023-07-09T06:38:48;4.17;;;3.80;;
7029;SDS011;3556;53.500;10.176;2023-07-09T06:41:14;5.93;;;4.10;;
7029;SDS011;3556;53.500;10.176;2023-07-09T06:43:40;5.20;;;4.00;;
7029;SDS011;3556;53.500;10.176;2023-07-09T06:46:06;7.13;;;4.23;;
7029;SDS011;3556;53.500;10.176;2023-07-09T06:48:35;4.33;;;3.90;;
7029;SDS011;3556;53.500;10.176;2023-07-09T06:51:00;4.40;;;4.00;;
7029;SDS011;3556;53.500;10.176;2023-07-09T06:53:26;4.60;;;4.07;;
7029;SDS011;3556;53.500;10.176;2023-07-09T06:55:53;3.57;;;3.37;;
7029;SDS011;3556;53.500;10.176;2023-07-09T06:58:20;4.20;;;3.80;;
7029;SDS011;3556;53.500;10.176;2023-07-09T07:00:48;4.80;;;4.40;;
7029;SDS011;3556;53.500;10.176;2023-07-09T07:03:14;5.57;;;4.00;;
7029;SDS011;3556;53.500;10.176;2023-07-09T07:05:44;9.00;;;4.20;;
7029;SDS011;3556;53.500;10.176;2023-07-09T07:08:10;6.80;;;4.50;;
7029;SDS011;3556;53.500;10.176;2023-07-09T07:10:37;6.10;;;4.20;;
7029;SDS011;3556;53.500;10.176;2023-07-09T07:13:03;4.77;;;4.27;;
7029;SDS011;3556;53.500;10.176;2023-07-09T07:15:29;4.63;;;4.30;;
7029;SDS011;3556;53.500;10.176;2023-07-09T07:17:54;4.20;;;3.87;;
7029;SDS011;3556;53.500;10.176;2023-07-09T07:20:20;4.50;;;4.10;;
7029;SDS011;3556;53.500;10.176;2023-07-09T07:22:46;4.10;;;3.80;;
7029;SDS011;3556;53.500;10.176;2023-07-09T07:25:11;7.50;;;4.87;;
7029;SDS011;3556;53.500;10.176;2023-07-09T07:27:38;5.20;;;4.77;;
7029;SDS011;3556;53.500;10.176;2023-07-09T07:30:04;6.40;;;5.10;;
7029;SDS011;3556;53.500;10.176;2023-07-09T07:32:34;5.30;;;4.80;;
7029;SDS011;3556;53.500;10.176;2023-07-09T07:35:03;5.90;;;4.40;;
7029;SDS011;3556;53.500;10.176;2023-07-09T07:37:29;9.30;;;5.00;;
7029;SDS011;3556;53.500;10.176;2023-07-09T07:39:55;4.33;;;4.03;;
7029;SDS011;3556;53.500;10.176;2023-07-09T07:42:21;5.23;;;4.30;;
7029;SDS011;3556;53.500;10.176;2023-07-09T07:44:46;5.00;;;4.50;;
7029;SDS011;3556;53.500;10.176;2023-07-09T07:47:12;9.90;;;4.60;;
7029;SDS011;3556;53.500;10.176;2023-07-09T07:49:37;4.67;;;4.27;;
7029;SDS011;3556;53.500;10.176;2023-07-09T07:52:03;5.40;;;4.70;;
7029;SDS011;3556;53.500;10.176;2023-07-09T07:54:30;4.50;;;4.20;;
7029;SDS011;3556;53.500;10.176;2023-07-09T07:56:58;4.53;;;4.13;;
7029;SDS011;3556;53.500;10.176;2023-07-09T07:59:24;4.90;;;4.47;;
7029;SDS011;3556;53.500;10.176;2023-07-09T08:01:50;5.10;;;4.30;;
7029;SDS011;3556;53.500;10.176;2023-07-09T08:04:15;4.57;;;4.23;;
7029;SDS011;3556;53.500;10.176;2023-07-09T08:06:41;6.30;;;4.80;;
7029;SDS011;3556;53.500;10.176;2023-07-09T08:09:07;4.90;;;4.50;;
7029;SDS011;3556;53.500;10.176;2023-07-09T08:11:32;7.60;;;4.63;;
7029;SDS011;3556;53.500;10.176;2023-07-09T08:13:58;5.33;;;4.67;;
7029;SDS011;3556;53.500;10.176;2023-07-09T08:16:24;6.13;;;4.60;;
7029;SDS011;3556;53.500;10.176;2023-07-09T08:18:50;5.40;;;4.90;;
7029;SDS011;3556;53.500;10.176;2023-07-09T08:21:17;5.60;;;5.10;;
7029;SDS011;3556;53.500;10.176;2023-07-09T08:23:43;5.13;;;4.73;;
7029;SDS011;3556;53.500;10.176;2023-07-09T08:26:09;5.00;;;4.57;;
7029;SDS011;3556;53.500;10.176;2023-07-09T08:28:35;5.63;;;5.13;;
7029;SDS011;3556;53.500;10.176;2023-07-09T08:31:01;5.47;;;5.03;;
7029;SDS011;3556;53.500;10.176;2023-07-09T08:33:26;7.00;;;5.57;;
7029;SDS011;3556;53.500;10.176;2023-07-09T08:35:53;5.77;;;5.27;;
7029;SDS011;3556;53.500;10.176;2023-07-09T08:38:19;5.70;;;5.10;;
7029;SDS011;3556;53.500;10.176;2023-07-09T08:40:59;5.20;;;4.80;;
7029;SDS011;3556;53.500;10.176;2023-07-09T08:46:07;6.63;;;5.20;;
7029;SDS011;3556;53.500;10.176;2023-07-09T08:48:36;5.83;;;4.97;;
7029;SDS011;3556;53.500;10.176;2023-07-09T08:51:15;5.47;;;5.00;;
7029;SDS011;3556;53.500;10.176;2023-07-09T08:54:04;6.10;;;5.07;;
7029;SDS011;3556;53.500;10.176;2023-07-09T08:56:54;7.60;;;5.07;;
7029;SDS011;3556;53.500;10.176;2023-07-09T08:59:24;5.73;;;5.13;;
7029;SDS011;3556;53.500;10.176;2023-07-09T09:01:51;5.87;;;5.20;;
7029;SDS011;3556;53.500;10.176;2023-07-09T09:07:13;5.20;;;4.80;;
7029;SDS011;3556;53.500;10.176;2023-07-09T09:12:27;6.87;;;5.50;;
7029;SDS011;3556;53.500;10.176;2023-07-09T09:15:02;5.43;;;4.90;;
7029;SDS011;3556;53.500;10.176;2023-07-09T09:17:35;5.63;;;5.20;;
7029;SDS011;3556;53.500;10.176;2023-07-09T09:20:08;7.77;;;5.77;;
7029;SDS011;3556;53.500;10.176;2023-07-09T09:22:52;6.07;;;5.50;;
7029;SDS011;3556;53.500;10.176;2023-07-09T09:25:24;5.97;;;5.33;;
7029;SDS011;3556;53.500;10.176;2023-07-09T09:27:54;6.10;;;5.50;;
7029;SDS011;3556;53.500;10.176;2023-07-09T09:30:21;5.40;;;5.00;;
7029;SDS011;3556;53.500;10.176;2023-07-09T09:35:24;6.27;;;5.67;;
7029;SDS011;3556;53.500;10.176;2023-07-09T09:37:56;5.53;;;5.03;;
7029;SDS011;3556;53.500;10.176;2023-07-09T09:40:24;6.13;;;5.63;;
7029;SDS011;3556;53.500;10.176;2023-07-09T09:42:51;6.77;;;5.20;;
7029;SDS011;3556;53.500;10.176;2023-07-09T09:45:20;5.60;;;5.03;;
7029;SDS011;3556;53.500;10.176;2023-07-09T09:47:51;7.63;;;5.47;;
7029;SDS011;3556;53.500;10.176;2023-07-09T09:50:17;5.50;;;5.07;;
7029;SDS011;3556;53.500;10.176;2023-07-09T09:52:44;5.90;;;5.30;;
7029;SDS011;3556;53.500;10.176;2023-07-09T09:55:12;8.23;;;5.53;;
7029;SDS011;3556;53.500;10.176;2023-07-09T09:57:47;9.10;;;5.07;;
7029;SDS011;3556;53.500;10.176;2023-07-09T10:00:14;10.60;;;5.60;;
7029;SDS011;3556;53.500;10.176;2023-07-09T10:02:41;6.57;;;5.97;;
7029;SDS011;3556;53.500;10.176;2023-07-09T10:05:16;8.70;;;4.90;;
7029;SDS011;3556;53.500;10.176;2023-07-09T10:07:47;6.20;;;5.70;;
7029;SDS011;3556;53.500;10.176;2023-07-09T10:10:27;5.93;;;5.17;;
7029;SDS011;3556;53.500;10.176;2023-07-09T10:18:17;5.70;;;5.30;;
7029;SDS011;3556;53.500;10.176;2023-07-09T10:20:45;6.30;;;5.50;;
7029;SDS011;3556;53.500;10.176;2023-07-09T10:23:25;6.30;;;5.50;;
7029;SDS011;3556;53.500;10.176;2023-07-09T10:25:58;8.40;;;5.60;;
7029;SDS011;3556;53.500;10.176;2023-07-09T10:31:26;6.77;;;5.67;;
7029;SDS011;3556;53.500;10.176;2023-07-09T10:39:24;6.43;;;5.80;;
7029;SDS011;3556;53.500;10.176;2023-07-09T10:41:57;6.23;;;5.70;;
7029;SDS011;3556;53.500;10.176;2023-07-09T10:44:33;10.67;;;5.47;;
7029;SDS011;3556;53.500;10.176;2023-07-09T10:47:05;6.77;;;6.17;;
7029;SDS011;3556;53.500;10.176;2023-07-09T10:49:38;6.60;;;5.80;;
7029;SDS011;3556;53.500;10.176;2023-07-09T10:54:52;7.80;;;5.60;;
7029;SDS011;3556;53.500;10.176;2023-07-09T10:57:59;6.40;;;5.90;;
7029;SDS011;3556;53.500;10.176;2023-07-09T11:00:46;7.27;;;5.90;;
7029;SDS011;3556;53.500;10.176;2023-07-09T11:03:18;6.30;;;5.70;;
7029;SDS011;3556;53.500;10.176;2023-07-09T11:05:46;6.20;;;5.60;;
7029;SDS011;3556;53.500;10.176;2023-07-09T11:08:21;5.90;;;5.10;;
7029;SDS011;3556;53.500;10.176;2023-07-09T11:10:54;10.80;;;6.07;;
7029;SDS011;3556;53.500;10.176;2023-07-09T11:15:51;6.60;;;6.00;;
7029;SDS011;3556;53.500;10.176;2023-07-09T11:18:25;6.20;;;5.70;;
7029;SDS011;3556;53.500;10.176;2023-07-09T11:21:04;5.80;;;5.40;;
7029;SDS011;3556;53.500;10.176;2023-07-09T11:23:51;6.10;;;5.70;;
7029;SDS011;3556;53.500;10.176;2023-07-09T11:26:23;6.13;;;5.60;;
7029;SDS011;3556;53.500;10.176;2023-07-09T11:28:53;6.40;;;5.90;;
7029;SDS011;3556;53.500;10.176;2023-07-09T11:31:31;8.83;;;6.10;;
7029;SDS011;3556;53.500;10.176;2023-07-09T11:34:02;8.73;;;5.90;;
7029;SDS011;3556;53.500;10.176;2023-07-09T11:41:55;6.93;;;6.17;;
7029;SDS011;3556;53.500;10.176;2023-07-09T11:44:25;6.47;;;5.73;;
7029;SDS011;3556;53.500;10.176;2023-07-09T11:49:57;6.60;;;6.00;;
7029;SDS011;3556;53.500;10.176;2023-07-09T11:52:28;6.30;;;5.80;;
7029;SDS011;3556;53.500;10.176;2023-07-09T11:55:05;6.47;;;5.87;;
7029;SDS011;3556;53.500;10.176;2023-07-09T11:58:04;6.10;;;5.60;;
7029;SDS011;3556;53.500;10.176;2023-07-09T12:00:51;6.03;;;5.43;;
7029;SDS011;3556;53.500;10.176;2023-07-09T12:03:18;5.90;;;5.47;;
7029;SDS011;3556;53.500;10.176;2023-07-09T12:06:02;5.80;;;5.30;;
7029;SDS011;3556;53.500;10.176;2023-07-09T12:08:37;5.77;;;5.30;;
7029;SDS011;3556;53.500;10.176;2023-07-09T12:11:05;6.20;;;5.60;;
7029;SDS011;3556;53.500;10.176;2023-07-09T12:13:38;7.37;;;5.60;;
7029;SDS011;3556;53.500;10.176;2023-07-09T12:16:04;6.30;;;5.70;;
7029;SDS011;3556;53.500;10.176;2023-07-09T12:18:43;6.07;;;5.07;;
7029;SDS011;3556;53.500;10.176;2023-07-09T12:21:09;6.20;;;5.60;;
7029;SDS011;3556;53.500;10.176;2023-07-09T12:23:35;6.63;;;5.88;;
7029;SDS011;3556;53.500;10.176;2023-07-09T12:26:01;6.00;;;5.50;;
7029;SDS011;3556;53.500;10.176;2023-07-09T12:28:28;6.90;;;6.20;;
7029;SDS011;3556;53.500;10.176;2023-07-09T12:30:54;6.28;;;5.68;;
7029;SDS011;3556;53.500;10.176;2023-07-09T12:33:22;7.45;;;5.70;;
7029;SDS011;3556;53.500;10.176;2023-07-09T12:35:59;5.75;;;5.25;;
7029;SDS011;3556;53.500;10.176;2023-07-09T12:38:27;6.50;;;5.85;;
7029;SDS011;3556;53.500;10.176;2023-07-09T12:40:59;11.18;;;6.07;;
7029;SDS011;3556;53.500;10.176;2023-07-09T12:43:26;6.03;;;5.60;;
7029;SDS011;3556;53.500;10.176;2023-07-09T12:45:53;6.30;;;5.63;;
7029;SDS011;3556;53.500;10.176;2023-07-09T12:48:24;9.33;;;5.80;;
7029;SDS011;3556;53.500;10.176;2023-07-09T12:50:53;5.93;;;5.20;;
7029;SDS011;3556;53.500;10.176;2023-07-09T12:53:22;6.72;;;6.05;;
7029;SDS011;3556;53.500;10.176;2023-07-09T12:55:51;6.83;;;5.93;;
7029;SDS011;3556;53.500;10.176;2023-07-09T12:58:21;5.90;;;5.40;;
7029;SDS011;3556;53.500;10.176;2023-07-09T13:00:51;7.28;;;5.90;;
7029;SDS011;3556;53.500;10.176;2023-07-09T13:03:28;6.50;;;5.57;;
7029;SDS011;3556;53.500;10.176;2023-07-09T13:05:59;6.47;;;5.90;;
7029;SDS011;3556;53.500;10.176;2023-07-09T13:08:27;5.93;;;5.43;;
7029;SDS011;3556;53.500;10.176;2023-07-09T13:10:54;6.17;;;5.57;;
7029;SDS011;3556;53.500;10.176;2023-07-09T13:13:22;7.20;;;5.93;;
7029;SDS011;3556;53.500;10.176;2023-07-09T13:15:54;9.02;;;5.32;;
7029;SDS011;3556;53.500;10.176;2023-07-09T13:18:22;6.57;;;5.60;;
7029;SDS011;3556;53.500;10.176;2023-07-09T13:20:49;6.53;;;6.03;;
7029;SDS011;3556;53.500;10.176;2023-07-09T13:25:52;6.43;;;5.88;;
7029;SDS011;3556;53.500;10.176;2023-07-09T13:30:47;6.45;;;5.80;;
7029;SDS011;3556;53.500;10.176;2023-07-09T13:33:17;7.00;;;5.40;;
7029;SDS011;3556;53.500;10.176;2023-07-09T13:35:43;5.97;;;5.40;;
7029;SDS011;3556;53.500;10.176;2023-07-09T13:38:13;6.18;;;5.68;;
7029;SDS011;3556;53.500;10.176;2023-07-09T13:40:41;6.78;;;5.57;;
7029;SDS011;3556;53.500;10.176;2023-07-09T13:43:11;8.10;;;5.63;;
7029;SDS011;3556;53.500;10.176;2023-07-09T13:45:40;6.85;;;5.43;;
7029;SDS011;3556;53.500;10.176;2023-07-09T13:48:11;7.43;;;5.93;;
7029;SDS011;3556;53.500;10.176;2023-07-09T13:50:43;6.45;;;5.95;;
7029;SDS011;3556;53.500;10.176;2023-07-09T13:53:14;12.00;;;6.05;;
7029;SDS011;3556;53.500;10.176;2023-07-09T13:55:48;5.63;;;5.22;;
7029;SDS011;3556;53.500;10.176;2023-07-09T13:58:16;5.93;;;5.43;;
7029;SDS011;3556;53.500;10.176;2023-07-09T14:00:43;6.35;;;5.72;;
7029;SDS011;3556;53.500;10.176;2023-07-09T14:03:15;9.35;;;5.80;;
7029;SDS011;3556;53.500;10.176;2023-07-09T14:05:47;5.65;;;5.20;;
7029;SDS011;3556;53.500;10.176;2023-07-09T14:08:14;5.90;;;5.45;;
7029;SDS011;3556;53.500;10.176;2023-07-09T14:10:39;9.40;;;5.25;;
7029;SDS011;3556;53.500;10.176;2023-07-09T14:13:05;6.82;;;5.28;;
7029;SDS011;3556;53.500;10.176;2023-07-09T14:15:38;6.10;;;5.60;;
7029;SDS011;3556;53.500;10.176;2023-07-09T14:18:05;6.25;;;5.65;;
7029;SDS011;3556;53.500;10.176;2023-07-09T14:20:36;5.78;;;5.20;;
7029;SDS011;3556;53.500;10.176;2023-07-09T14:23:01;5.90;;;5.40;;
7029;SDS011;3556;53.500;10.176;2023-07-09T14:25:27;9.57;;;5.45;;
7029;SDS011;3556;53.500;10.176;2023-07-09T14:27:53;5.82;;;5.32;;
7029;SDS011;3556;53.500;10.176;2023-07-09T14:30:20;7.93;;;5.32;;
7029;SDS011;3556;53.500;10.176;2023-07-09T14:32:48;6.47;;;5.82;;
7029;SDS011;3556;53.500;10.176;2023-07-09T14:35:17;5.63;;;5.22;;
7029;SDS011;3556;53.500;10.176;2023-07-09T14:37:45;26.60;;;6.30;;
7029;SDS011;3556;53.500;10.176;2023-07-09T14:40:12;6.30;;;5.70;;
7029;SDS011;3556;53.500;10.176;2023-07-09T14:42:38;6.30;;;5.80;;
7029;SDS011;3556;53.500;10.176;2023-07-09T14:45:09;6.18;;;5.40;;
7029;SDS011;3556;53.500;10.176;2023-07-09T14:47:51;8.85;;;5.63;;
7029;SDS011;3556;53.500;10.176;2023-07-09T14:50:18;6.20;;;5.70;;
7029;SDS011;3556;53.500;10.176;2023-07-09T14:52:45;6.75;;;5.85;;
7029;SDS011;3556;53.500;10.176;2023-07-09T14:55:15;18.05;;;6.20;;
7029;SDS011;3556;53.500;10.176;2023-07-09T14:57:42;8.23;;;5.80;;
7029;SDS011;3556;53.500;10.176;2023-07-09T15:00:16;6.43;;;5.85;;
7029;SDS011;3556;53.500;10.176;2023-07-09T15:02:44;5.85;;;5.35;;
7029;SDS011;3556;53.500;10.176;2023-07-09T15:05:21;9.43;;;5.72;;
7029;SDS011;3556;53.500;10.176;2023-07-09T15:07:48;6.20;;;5.60;;
7029;SDS011;3556;53.500;10.176;2023-07-09T15:10:15;7.90;;;6.20;;
7029;SDS011;3556;53.500;10.176;2023-07-09T15:12:44;6.90;;;6.30;;
7029;SDS011;3556;53.500;10.176;2023-07-09T15:15:16;7.93;;;6.00;;
7029;SDS011;3556;53.500;10.176;2023-07-09T15:17:48;8.25;;;5.75;;
7029;SDS011;3556;53.500;10.176;2023-07-09T15:20:18;7.17;;;5.80;;
7029;SDS011;3556;53.500;10.176;2023-07-09T15:22:47;6.53;;;5.85;;
7029;SDS011;3556;53.500;10.176;2023-07-09T15:25:24;9.23;;;5.97;;
7029;SDS011;3556;53.500;10.176;2023-07-09T15:27:52;10.40;;;5.70;;
7029;SDS011;3556;53.500;10.176;2023-07-09T15:32:51;7.30;;;6.10;;
7029;SDS011;3556;53.500;10.176;2023-07-09T15:35:19;8.83;;;5.80;;
7029;SDS011;3556;53.500;10.176;2023-07-09T15:37:45;9.20;;;5.97;;
7029;SDS011;3556;53.500;10.176;2023-07-09T15:42:53;6.50;;;5.90;;
7029;SDS011;3556;53.500;10.176;2023-07-09T15:45:22;6.50;;;6.00;;
7029;SDS011;3556;53.500;10.176;2023-07-09T15:47:49;6.93;;;6.23;;
7029;SDS011;3556;53.500;10.176;2023-07-09T15:50:20;7.50;;;5.90;;
7029;SDS011;3556;53.500;10.176;2023-07-09T15:52:48;7.53;;;6.73;;
7029;SDS011;3556;53.500;10.176;2023-07-09T15:55:15;7.10;;;6.30;;
7029;SDS011;3556;53.500;10.176;2023-07-09T15:57:46;6.90;;;6.27;;
7029;SDS011;3556;53.500;10.176;2023-07-09T16:00:34;8.73;;;6.50;;